Campina do Monte Alegre, Brazil
Current Conditions -  °F | °C
As of 1:00 PM on Thursday 23 Oct 2014 (Local Time) from SBKP Reporting Station
Few Clouds Few Clouds  
Wind Chill: 82°   Ceiling: Unl
Heat Index: 82°   Visibility: 6mi
Dew Point: 55°   Wind: 7mph
Humidity: 39%   Direction: 310°NW
Pressure: 30.12"   Gusts: NA
Location:  23.58°S, 48.47°W
Report Text: SBKP 231500Z 31006KT 9999 FEW048 28/13 Q1020
Loading
Personal Weather Stations






























Interactive Weather Map
Tropical Storm Tracking
New forecast layout! Learn more

10-Day Weather Forecast

Advertisements
Track Severe Weather on mobile